Time;durP1;ratioP1;P1;durP2;ratioP2;P2;SDS_P1;SDS_P2;PMS_P1;PMS_P2;Temp;Humidity;BMP_temperature;BMP_pressure;BME280_temperature;BME280_humidity;BME280_pressure;Samples;Min_cycle;Max_cycle;Signal;HPM_P1;HPM_P2
2022/10/10 00:01:10;;;;;;;0.60;0.20;;;11.60;1.00;;;;;;5052783;28;20485;-69
2022/10/10 00:03:38;;;;;;;0.60;0.10;;;11.70;1.00;;;;;;5052833;28;20438;-69
2022/10/10 00:06:07;;;;;;;0.60;0.10;;;11.70;1.00;;;;;;5052759;28;20450;-71
2022/10/10 00:08:35;;;;;;;0.60;0.10;;;11.70;1.00;;;;;;5052558;28;20474;-70
2022/10/10 00:11:03;;;;;;;0.60;0.10;;;11.70;1.00;;;;;;5061364;28;20839;-69
2022/10/10 00:13:33;;;;;;;0.60;0.10;;;11.60;1.00;;;;;;5071989;28;20504;-71
2022/10/10 00:16:01;;;;;;;0.60;0.10;;;11.60;1.00;;;;;;5068751;28;20526;-70
2022/10/10 00:18:30;;;;;;;0.60;0.10;;;11.60;1.00;;;;;;5052525;28;20985;-69
2022/10/10 00:20:57;;;;;;;0.60;0.10;;;11.60;1.00;;;;;;5052518;28;20451;-70
2022/10/10 00:23:25;;;;;;;0.60;0.10;;;11.60;1.00;;;;;;5052496;28;20485;-70
2022/10/10 00:25:53;;;;;;;0.60;0.10;;;11.60;1.00;;;;;;5052459;28;20500;-70
2022/10/10 00:28:21;;;;;;;0.60;0.10;;;11.60;1.00;;;;;;5052085;28;20494;-71
2022/10/10 00:30:50;;;;;;;0.60;0.10;;;11.60;1.00;;;;;;5052343;28;20944;-71
2022/10/10 00:33:18;;;;;;;0.60;0.10;;;11.50;1.00;;;;;;5052147;28;20441;-71
2022/10/10 00:35:46;;;;;;;0.60;0.10;;;11.50;1.00;;;;;;5051815;28;20482;-69
2022/10/10 00:38:14;;;;;;;0.60;0.10;;;11.50;1.00;;;;;;5051963;28;20498;-69
2022/10/10 00:40:46;;;;;;;0.60;0.10;;;11.50;1.00;;;;;;5051786;28;20474;-71
2022/10/10 00:43:14;;;;;;;0.60;0.10;;;11.60;1.00;;;;;;5052120;28;20438;-69
2022/10/10 00:45:45;;;;;;;0.60;0.10;;;11.60;1.00;;;;;;5051926;28;20434;-69
2022/10/10 00:48:17;;;;;;;0.60;0.10;;;11.60;1.00;;;;;;5042811;28;20463;-68
2022/10/10 00:50:49;;;;;;;0.60;0.10;;;11.60;1.00;;;;;;5043306;28;20447;-69
2022/10/10 00:53:20;;;;;;;0.60;0.10;;;11.50;1.00;;;;;;5040394;28;20859;-69
2022/10/10 00:55:48;;;;;;;0.60;0.10;;;11.40;1.00;;;;;;5040224;28;20482;-71
2022/10/10 00:58:17;;;;;;;0.60;0.10;;;11.40;1.00;;;;;;5040722;28;20455;-68
2022/10/10 01:00:45;;;;;;;0.60;0.10;;;11.40;1.00;;;;;;5042897;28;20448;-71
2022/10/10 01:03:15;;;;;;;0.60;0.10;;;11.40;1.00;;;;;;5040200;28;20435;-71
2022/10/10 01:05:44;;;;;;;0.60;0.10;;;11.30;1.00;;;;;;5044706;28;20454;-69
2022/10/10 01:08:11;;;;;;;0.60;0.10;;;11.30;1.00;;;;;;5042378;28;21111;-69
2022/10/10 01:10:52;;;;;;;0.60;0.10;;;11.30;1.00;;;;;;5043797;28;20442;-69
2022/10/10 01:13:29;;;;;;;0.60;0.10;;;11.30;1.00;;;;;;5040462;28;20508;-70
2022/10/10 01:16:01;;;;;;;0.60;0.10;;;11.30;1.00;;;;;;5041823;28;20501;-71
2022/10/10 01:18:41;;;;;;;0.60;0.10;;;11.30;1.00;;;;;;5042967;28;20459;-69
2022/10/10 01:21:20;;;;;;;0.60;0.10;;;11.30;1.00;;;;;;5039934;28;20485;-69
2022/10/10 01:24:14;;;;;;;0.60;0.10;;;11.20;1.00;;;;;;5041879;28;20546;-70
2022/10/10 01:27:08;;;;;;;0.60;0.10;;;11.20;1.00;;;;;;5044654;28;20501;-69
2022/10/10 01:29:41;;;;;;;0.60;0.10;;;11.20;1.00;;;;;;5045487;28;20463;-69
2022/10/10 01:32:15;;;;;;;0.60;0.10;;;11.20;1.00;;;;;;5044386;28;20438;-70
2022/10/10 01:34:53;;;;;;;0.60;0.10;;;11.20;1.00;;;;;;5045382;28;20443;-69
2022/10/10 01:37:28;;;;;;;0.60;0.10;;;11.30;1.00;;;;;;5046779;28;20482;-70
2022/10/10 01:39:59;;;;;;;0.60;0.10;;;11.30;1.00;;;;;;5048590;28;20469;-70
2022/10/10 01:42:31;;;;;;;0.60;0.10;;;11.30;1.00;;;;;;5047639;28;20446;-70
2022/10/10 01:45:00;;;;;;;0.60;0.10;;;11.20;1.00;;;;;;5055497;28;20504;-69
2022/10/10 01:47:28;;;;;;;0.60;0.10;;;11.00;1.00;;;;;;5053939;28;20921;-70
2022/10/10 01:50:01;;;;;;;0.60;0.20;;;11.20;1.00;;;;;;5065652;28;20467;-69
2022/10/10 01:52:38;;;;;;;0.60;0.10;;;11.20;1.00;;;;;;5054842;28;20941;-69
2022/10/10 01:55:26;;;;;;;0.60;0.10;;;11.30;1.00;;;;;;5055612;28;21006;-70
2022/10/10 01:58:05;;;;;;;0.60;0.30;;;11.20;1.00;;;;;;5049592;28;20540;-70
2022/10/10 02:00:40;;;;;;;0.60;0.10;;;11.20;1.00;;;;;;5061071;28;20438;-69
2022/10/10 02:03:15;;;;;;;0.60;0.10;;;11.10;1.00;;;;;;5059660;28;20920;-69
2022/10/10 02:05:46;;;;;;;0.60;0.10;;;11.10;1.00;;;;;;5055201;28;20445;-70
2022/10/10 02:08:19;;;;;;;0.60;0.10;;;11.00;1.00;;;;;;5055253;28;20946;-69
2022/10/10 02:10:51;;;;;;;0.60;0.10;;;11.00;1.00;;;;;;5061582;28;20438;-70
2022/10/10 02:13:22;;;;;;;0.60;0.10;;;11.00;1.00;;;;;;5074783;28;20449;-70
2022/10/10 02:15:55;;;;;;;0.60;0.10;;;11.10;1.00;;;;;;5062552;28;20446;-68
2022/10/10 02:18:27;;;;;;;0.60;0.10;;;11.00;1.00;;;;;;5055065;28;20557;-71
2022/10/10 02:20:55;;;;;;;0.60;0.10;;;11.00;1.00;;;;;;5055060;28;20515;-69
2022/10/10 02:23:24;;;;;;;0.60;0.10;;;11.00;1.00;;;;;;5054987;28;20447;-69
2022/10/10 02:25:55;;;;;;;0.60;0.20;;;11.00;1.00;;;;;;5055220;28;20489;-69
2022/10/10 02:28:29;;;;;;;0.60;0.10;;;11.00;1.00;;;;;;5055323;28;20485;-70
2022/10/10 02:31:02;;;;;;;0.60;0.10;;;11.00;1.00;;;;;;5055246;28;20481;-71
2022/10/10 02:33:36;;;;;;;0.60;0.10;;;11.00;1.00;;;;;;5054696;28;20447;-71
2022/10/10 02:36:05;;;;;;;0.60;0.10;;;10.90;1.00;;;;;;5054384;28;20560;-70
2022/10/10 02:38:33;;;;;;;0.60;0.10;;;10.80;1.00;;;;;;5054629;28;20910;-70
2022/10/10 02:41:03;;;;;;;0.60;0.10;;;10.80;1.00;;;;;;5054668;28;20446;-69
2022/10/10 02:43:33;;;;;;;0.60;0.10;;;10.80;1.00;;;;;;5055206;28;20435;-70
2022/10/10 02:46:06;;;;;;;0.60;0.10;;;10.80;1.00;;;;;;5058085;28;20447;-69
2022/10/10 02:48:34;;;;;;;0.60;0.10;;;10.80;1.00;;;;;;5058235;28;20454;-70
2022/10/10 02:51:02;;;;;;;0.60;0.10;;;10.70;1.00;;;;;;5054949;28;20473;-70
2022/10/10 02:53:30;;;;;;;7.03;6.73;;;10.70;1.00;;;;;;5054379;28;20439;-70
2022/10/10 02:55:57;;;;;;;0.60;0.10;;;10.70;1.00;;;;;;5054007;28;20885;-71
2022/10/10 02:58:25;;;;;;;0.60;0.10;;;10.80;1.00;;;;;;5054128;28;20482;-69
2022/10/10 03:00:53;;;;;;;0.60;0.10;;;10.80;1.00;;;;;;5054535;28;20449;-70
2022/10/10 03:03:22;;;;;;;0.60;0.10;;;10.80;1.00;;;;;;5054271;28;20541;-69
2022/10/10 03:05:50;;;;;;;0.60;0.10;;;10.80;1.00;;;;;;5054252;28;20489;-71
2022/10/10 03:08:17;;;;;;;0.60;0.10;;;10.90;1.00;;;;;;5054365;28;20536;-70
2022/10/10 03:10:55;;;;;;;0.60;0.10;;;10.90;1.00;;;;;;5060344;28;20445;-70
2022/10/10 03:13:23;;;;;;;0.60;0.10;;;10.90;1.00;;;;;;5074204;28;20511;-71
2022/10/10 03:15:52;;;;;;;0.60;0.10;;;10.90;1.00;;;;;;5063212;28;20451;-70
2022/10/10 03:18:20;;;;;;;0.60;0.10;;;10.90;1.00;;;;;;5053855;28;20483;-70
2022/10/10 03:20:53;;;;;;;0.60;0.10;;;10.90;1.00;;;;;;5054229;28;20492;-71
2022/10/10 03:23:22;;;;;;;0.60;0.10;;;10.90;1.00;;;;;;5053269;28;20447;-70
2022/10/10 03:25:49;;;;;;;0.60;0.10;;;10.90;1.00;;;;;;5053181;28;20949;-70
2022/10/10 03:28:17;;;;;;;0.60;0.10;;;10.90;1.00;;;;;;5053705;28;20520;-70
2022/10/10 03:30:45;;;;;;;0.60;0.10;;;10.80;1.00;;;;;;5053528;28;21034;-71
2022/10/10 03:33:14;;;;;;;0.60;0.10;;;10.80;1.00;;;;;;5053028;28;20482;-71
2022/10/10 03:35:42;;;;;;;0.60;0.10;;;10.80;1.00;;;;;;5053803;28;20438;-70
2022/10/10 03:38:12;;;;;;;0.60;0.10;;;10.80;1.00;;;;;;5053868;28;20544;-69
2022/10/10 03:40:42;;;;;;;0.60;0.10;;;10.80;1.00;;;;;;5053737;28;20504;-69
2022/10/10 03:43:12;;;;;;;0.60;0.10;;;10.80;1.00;;;;;;5053130;28;20493;-70
2022/10/10 03:45:42;;;;;;;0.60;0.10;;;10.80;1.00;;;;;;5053407;28;20442;-69
2022/10/10 03:48:10;;;;;;;0.60;0.10;;;10.80;1.00;;;;;;5055406;28;20478;-70
2022/10/10 03:50:38;;;;;;;0.60;0.10;;;10.80;1.00;;;;;;5060865;28;20475;-70
2022/10/10 03:53:06;;;;;;;0.60;0.10;;;10.80;1.00;;;;;;5052585;28;20447;-70
2022/10/10 03:55:35;;;;;;;0.60;0.10;;;10.80;1.00;;;;;;5053055;28;20976;-70
2022/10/10 03:58:03;;;;;;;0.60;0.10;;;10.80;1.00;;;;;;5052802;28;20510;-72
2022/10/10 04:00:31;;;;;;;0.60;0.10;;;10.80;1.00;;;;;;5052475;28;20434;-70
2022/10/10 04:02:59;;;;;;;0.60;0.10;;;10.70;1.00;;;;;;5052509;28;20965;-70
2022/10/10 04:05:26;;;;;;;0.60;0.10;;;10.80;1.00;;;;;;5053086;28;20917;-69
2022/10/10 04:07:54;;;;;;;0.60;0.10;;;10.70;1.00;;;;;;5053103;28;20446;-70
2022/10/10 04:10:22;;;;;;;0.60;0.10;;;10.70;1.00;;;;;;5055641;28;20434;-70
2022/10/10 04:12:51;;;;;;;0.60;0.10;;;10.70;1.00;;;;;;5060138;28;20455;-70
2022/10/10 04:15:20;;;;;;;0.60;0.10;;;10.70;1.00;;;;;;5053012;28;20443;-69
2022/10/10 04:17:48;;;;;;;0.60;0.10;;;10.70;1.00;;;;;;5052909;28;20845;-70
2022/10/10 04:20:16;;;;;;;0.60;0.10;;;10.70;1.00;;;;;;5052965;28;20453;-69
2022/10/10 04:22:44;;;;;;;0.60;0.10;;;10.70;1.00;;;;;;5052422;28;20512;-70
2022/10/10 04:25:12;;;;;;;0.60;0.10;;;10.70;1.00;;;;;;5052843;28;20556;-70
2022/10/10 04:27:40;;;;;;;0.60;0.10;;;10.60;1.00;;;;;;5054949;28;20443;-70
2022/10/10 04:30:11;;;;;;;0.60;0.20;;;10.60;1.00;;;;;;5061308;28;20459;-70
2022/10/10 04:32:39;;;;;;;0.60;0.10;;;10.60;1.00;;;;;;5051401;28;20458;-70
2022/10/10 04:35:07;;;;;;;0.60;0.10;;;10.60;1.00;;;;;;5052627;28;20450;-71
2022/10/10 04:37:35;;;;;;;0.60;0.10;;;10.60;1.00;;;;;;5043321;28;20964;-70
2022/10/10 04:40:03;;;;;;;0.60;0.10;;;10.50;1.00;;;;;;5032767;28;21059;-70
2022/10/10 04:42:31;;;;;;;0.60;0.10;;;10.50;1.00;;;;;;5032673;28;20497;-69
2022/10/10 04:44:59;;;;;;;0.60;0.10;;;10.50;1.00;;;;;;5033208;28;20444;-70
2022/10/10 04:47:28;;;;;;;0.60;0.10;;;10.50;1.00;;;;;;5046606;28;20469;-70
2022/10/10 04:49:56;;;;;;;0.60;0.10;;;10.50;1.00;;;;;;5052362;28;20502;-70
2022/10/10 04:52:24;;;;;;;0.60;0.10;;;10.50;1.00;;;;;;5053045;28;20450;-68
2022/10/10 04:54:52;;;;;;;0.60;0.10;;;10.50;1.00;;;;;;5052666;28;20817;-71
2022/10/10 04:57:20;;;;;;;0.60;0.10;;;10.50;1.00;;;;;;5052114;28;20801;-71
2022/10/10 04:59:48;;;;;;;0.60;0.10;;;10.50;1.00;;;;;;5052176;28;20912;-70
2022/10/10 05:02:16;;;;;;;0.60;0.10;;;10.50;1.00;;;;;;5051764;28;20512;-70
2022/10/10 05:04:45;;;;;;;0.60;0.10;;;10.50;1.00;;;;;;5052237;28;21008;-69
2022/10/10 05:07:13;;;;;;;0.60;0.10;;;10.50;1.00;;;;;;5052239;28;20500;-70
2022/10/10 05:09:40;;;;;;;0.60;0.10;;;10.40;1.00;;;;;;5052558;28;20509;-70
2022/10/10 05:12:08;;;;;;;0.60;0.10;;;10.40;1.00;;;;;;5069908;28;20442;-70
2022/10/10 05:14:36;;;;;;;0.60;0.10;;;10.40;1.00;;;;;;5072343;28;20438;-70
2022/10/10 05:17:04;;;;;;;0.60;0.10;;;10.40;1.00;;;;;;5065892;28;20450;-71
2022/10/10 05:19:32;;;;;;;0.60;0.10;;;10.40;1.00;;;;;;5059873;28;20486;-72
2022/10/10 05:22:04;;;;;;;0.60;0.10;;;10.40;1.00;;;;;;5059511;28;20454;-70
2022/10/10 05:24:31;;;;;;;0.60;0.10;;;10.40;1.00;;;;;;5058900;28;20446;-70
2022/10/10 05:26:59;;;;;;;0.60;0.10;;;12.00;1.00;;;;;;5058182;28;20481;-70
2022/10/10 05:29:27;;;;;;;0.60;0.10;;;10.40;1.00;;;;;;5053924;28;20463;-70
2022/10/10 05:31:55;;;;;;;0.60;0.10;;;10.40;1.00;;;;;;5053739;28;20485;-69
2022/10/10 05:34:22;;;;;;;0.60;0.10;;;10.40;1.00;;;;;;5056346;28;20897;-70
2022/10/10 05:36:50;;;;;;;0.60;0.10;;;10.40;1.00;;;;;;5052499;28;20913;-69
2022/10/10 05:39:19;;;;;;;0.60;0.10;;;10.30;1.00;;;;;;5052419;28;20514;-72
2022/10/10 05:41:48;;;;;;;0.57;0.10;;;10.30;1.00;;;;;;5052607;28;20893;-71
2022/10/10 05:44:16;;;;;;;0.60;0.10;;;10.30;1.00;;;;;;5052484;28;20481;-70
2022/10/10 05:46:44;;;;;;;0.60;0.10;;;10.30;1.00;;;;;;5052109;28;20533;-72
2022/10/10 05:49:12;;;;;;;0.60;0.10;;;10.30;1.00;;;;;;5052076;28;20894;-71
2022/10/10 05:51:40;;;;;;;0.60;0.10;;;10.30;1.00;;;;;;5052100;28;20458;-71
2022/10/10 05:54:08;;;;;;;0.60;0.10;;;10.30;1.00;;;;;;5051145;28;20492;-72
2022/10/10 05:56:38;;;;;;;0.60;0.10;;;10.30;1.00;;;;;;5052123;28;20451;-70
2022/10/10 05:59:06;;;;;;;0.60;0.10;;;10.30;1.00;;;;;;5051676;28;20478;-71
2022/10/10 06:01:33;;;;;;;0.60;0.10;;;10.30;1.00;;;;;;5051813;28;20545;-71
2022/10/10 06:04:01;;;;;;;0.60;0.10;;;10.30;1.00;;;;;;5051589;28;20488;-71
2022/10/10 06:06:29;;;;;;;0.60;0.10;;;10.30;1.00;;;;;;5052169;28;20446;-70
2022/10/10 06:08:58;;;;;;;0.60;0.10;;;10.30;1.00;;;;;;5054767;28;20458;-72
2022/10/10 06:11:26;;;;;;;0.60;0.10;;;10.40;1.00;;;;;;5056210;28;20825;-71
2022/10/10 06:13:56;;;;;;;0.60;0.10;;;10.40;1.00;;;;;;5056498;28;20450;-72
2022/10/10 06:16:26;;;;;;;0.60;0.10;;;10.40;1.00;;;;;;5055705;28;20945;-72
2022/10/10 06:18:55;;;;;;;0.60;0.10;;;10.40;1.00;;;;;;5055960;28;20539;-71
2022/10/10 06:21:24;;;;;;;0.60;0.10;;;10.40;1.00;;;;;;5057366;28;20446;-70
2022/10/10 06:23:52;;;;;;;0.60;0.10;;;10.40;1.00;;;;;;5038499;28;21035;-71
2022/10/10 06:26:20;;;;;;;0.60;0.10;;;10.40;1.00;;;;;;5055870;28;20455;-71
2022/10/10 06:28:49;;;;;;;0.60;0.10;;;10.40;1.00;;;;;;5055453;28;20474;-71
2022/10/10 06:31:18;;;;;;;0.60;0.10;;;10.40;1.00;;;;;;5055418;28;20472;-71
2022/10/10 06:33:47;;;;;;;0.60;0.10;;;10.40;1.00;;;;;;5054868;28;20443;-71
2022/10/10 06:36:16;;;;;;;0.60;0.10;;;10.40;1.00;;;;;;5055078;28;20458;-71
2022/10/10 06:38:45;;;;;;;0.60;0.20;;;10.40;1.00;;;;;;5055100;28;20494;-71
2022/10/10 06:41:13;;;;;;;0.60;0.10;;;10.40;1.00;;;;;;5055291;28;20438;-71
2022/10/10 06:43:41;;;;;;;0.60;0.10;;;10.50;1.00;;;;;;5055290;28;20443;-71
2022/10/10 06:46:10;;;;;;;0.60;0.10;;;10.40;1.00;;;;;;5055199;28;20454;-71
2022/10/10 06:48:39;;;;;;;0.60;0.10;;;10.50;1.00;;;;;;5055449;28;20459;-69
2022/10/10 06:51:09;;;;;;;0.60;0.10;;;10.50;1.00;;;;;;5055060;28;20438;-70
2022/10/10 06:53:37;;;;;;;0.60;0.10;;;10.50;1.00;;;;;;5054450;28;20458;-70
2022/10/10 06:56:05;;;;;;;0.60;0.10;;;10.60;1.00;;;;;;5055136;28;21025;-70
2022/10/10 06:58:36;;;;;;;0.60;0.10;;;10.60;1.00;;;;;;5057638;28;21046;-71
2022/10/10 07:01:05;;;;;;;0.60;0.10;;;10.60;1.00;;;;;;5063229;28;20443;-71
2022/10/10 07:03:33;;;;;;;0.60;0.10;;;10.70;1.00;;;;;;5060550;28;20480;-71
2022/10/10 07:06:03;;;;;;;0.60;0.10;;;10.70;1.00;;;;;;5056834;28;20446;-72
2022/10/10 07:08:31;;;;;;;0.60;0.10;;;10.80;1.00;;;;;;5054853;28;20516;-71
2022/10/10 07:11:00;;;;;;;0.60;0.10;;;10.80;1.00;;;;;;5063051;28;20437;-71
2022/10/10 07:13:28;;;;;;;0.60;0.10;;;10.80;1.00;;;;;;5074358;28;20449;-71
2022/10/10 07:15:56;;;;;;;0.60;0.10;;;10.90;1.00;;;;;;5056453;28;20863;-70
2022/10/10 07:18:24;;;;;;;0.60;0.10;;;10.90;1.00;;;;;;5053717;28;20497;-71
2022/10/10 07:20:55;;;;;;;0.60;0.10;;;10.90;1.00;;;;;;5054337;28;20493;-71
2022/10/10 07:23:25;;;;;;;0.60;0.10;;;11.00;1.00;;;;;;5054193;28;20442;-73
2022/10/10 07:25:59;;;;;;;0.60;0.10;;;11.00;1.00;;;;;;5054541;28;20477;-72
2022/10/10 07:28:27;;;;;;;0.60;0.10;;;11.10;1.00;;;;;;5054210;28;20520;-72
2022/10/10 07:31:00;;;;;;;0.60;0.17;;;11.10;1.00;;;;;;5054109;28;20446;-71
2022/10/10 07:33:32;;;;;;;0.60;0.10;;;11.20;1.00;;;;;;5053543;28;20474;-72
2022/10/10 07:36:00;;;;;;;0.60;0.10;;;;;;;;;;5054272;28;20458;-71
2022/10/10 07:38:32;;;;;;;0.60;0.10;;;11.30;1.00;;;;;;5054681;28;20507;-71
2022/10/10 07:40:59;;;;;;;0.60;0.10;;;11.30;1.00;;;;;;5049771;28;20887;-71
2022/10/10 07:43:27;;;;;;;0.60;0.10;;;11.30;1.00;;;;;;5044095;28;20439;-71
2022/10/10 07:45:55;;;;;;;0.60;0.10;;;11.40;1.00;;;;;;5042380;28;21029;-71
2022/10/10 07:48:23;;;;;;;0.60;0.10;;;11.40;1.00;;;;;;5043722;28;20508;-71
2022/10/10 07:50:51;;;;;;;0.60;0.10;;;11.50;1.00;;;;;;5044225;28;20423;-70
2022/10/10 07:53:19;;;;;;;0.60;0.10;;;11.50;1.00;;;;;;5045256;28;20513;-70
2022/10/10 07:55:48;;;;;;;0.60;0.10;;;11.50;1.00;;;;;;5050841;28;20459;-71
2022/10/10 07:58:16;;;;;;;0.60;0.10;;;11.60;1.00;;;;;;5047473;28;20620;-73
2022/10/10 08:00:44;;;;;;;0.60;0.10;;;11.60;1.00;;;;;;5050443;28;20474;-70
2022/10/10 08:03:12;;;;;;;0.60;0.10;;;11.80;1.00;;;;;;5050444;28;20466;-73
2022/10/10 08:05:41;;;;;;;0.60;0.10;;;11.90;1.00;;;;;;5050099;28;20443;-71
2022/10/10 08:08:10;;;;;;;1.13;1.03;;;11.90;1.00;;;;;;5045315;28;20487;-71
2022/10/10 08:10:42;;;;;;;0.60;0.10;;;11.90;1.00;;;;;;5043453;28;20430;-72
2022/10/10 08:13:12;;;;;;;0.60;0.43;;;12.00;1.00;;;;;;5042663;28;20454;-73
2022/10/10 08:15:40;;;;;;;0.60;0.10;;;12.00;1.00;;;;;;5045270;28;20443;-72
2022/10/10 08:18:07;;;;;;;0.60;0.10;;;12.00;1.00;;;;;;5049974;28;20510;-73
2022/10/10 08:20:35;;;;;;;0.60;0.10;;;12.00;1.00;;;;;;5048548;28;20528;-72
2022/10/10 08:23:03;;;;;;;0.60;0.10;;;12.00;1.00;;;;;;5048993;28;20468;-72
2022/10/10 08:25:31;;;;;;;0.60;0.10;;;12.00;1.00;;;;;;5050144;28;20447;-73
2022/10/10 08:27:59;;;;;;;0.60;0.10;;;12.20;1.00;;;;;;5047128;28;20439;-72
2022/10/10 08:30:28;;;;;;;0.60;0.10;;;12.20;1.00;;;;;;5050493;28;20470;-71
2022/10/10 08:32:56;;;;;;;0.60;0.10;;;12.20;1.00;;;;;;5036640;28;20448;-72
2022/10/10 08:35:24;;;;;;;0.60;0.10;;;12.30;1.00;;;;;;5034792;28;20443;-71
2022/10/10 08:37:52;;;;;;;0.60;0.10;;;12.40;1.00;;;;;;5059860;28;20458;-71
2022/10/10 08:40:21;;;;;;;0.60;0.10;;;12.40;1.00;;;;;;5068982;28;21052;-70
2022/10/10 08:42:54;;;;;;;0.60;0.10;;;12.40;1.00;;;;;;5058093;28;20443;-73
2022/10/10 08:45:26;;;;;;;0.60;0.10;;;12.50;1.00;;;;;;5048356;28;20500;-72
2022/10/10 08:47:59;;;;;;;0.60;0.10;;;12.60;1.00;;;;;;5051627;28;20500;-70
2022/10/10 08:50:31;;;;;;;0.60;0.10;;;12.60;1.00;;;;;;5059732;28;20834;-71
2022/10/10 08:53:03;;;;;;;0.60;0.20;;;12.60;1.00;;;;;;5056444;28;20928;-72
2022/10/10 08:55:33;;;;;;;0.60;0.10;;;12.70;1.00;;;;;;5065133;28;20458;-72
2022/10/10 08:58:05;;;;;;;0.60;0.10;;;12.90;1.00;;;;;;5056746;28;20480;-70
2022/10/10 09:00:39;;;;;;;0.60;0.10;;;12.90;1.00;;;;;;5054936;28;20478;-71
2022/10/10 09:03:21;;;;;;;0.60;0.10;;;13.00;1.00;;;;;;5051401;28;20516;-71
2022/10/10 09:06:03;;;;;;;0.60;0.10;;;13.00;1.00;;;;;;5051489;28;20445;-71
2022/10/10 09:08:42;;;;;;;0.60;0.10;;;13.10;1.00;;;;;;5061380;28;20468;-71
2022/10/10 09:11:25;;;;;;;0.60;0.10;;;13.20;1.00;;;;;;5062887;28;20997;-71
2022/10/10 09:14:06;;;;;;;0.60;0.30;;;13.20;1.00;;;;;;5072490;28;20434;-72
2022/10/10 09:16:40;;;;;;;0.60;0.10;;;13.30;1.00;;;;;;5055682;28;20561;-72
2022/10/10 09:19:23;;;;;;;0.60;0.10;;;13.40;1.00;;;;;;5060156;28;20904;-71
2022/10/10 09:21:56;;;;;;;0.60;0.10;;;13.50;1.00;;;;;;5061102;28;20802;-70
2022/10/10 09:24:27;;;;;;;0.60;0.10;;;13.50;1.00;;;;;;5041244;28;20751;-71
2022/10/10 09:26:59;;;;;;;0.60;0.10;;;13.60;1.00;;;;;;5041650;28;20440;-71
2022/10/10 09:29:32;;;;;;;0.60;0.10;;;13.70;1.00;;;;;;5045252;28;20455;-71
2022/10/10 09:32:08;;;;;;;0.60;0.10;;;13.80;1.00;;;;;;5049903;28;20457;-71
2022/10/10 09:34:41;;;;;;;0.60;0.10;;;13.80;1.00;;;;;;5049022;28;20509;-71
2022/10/10 09:37:15;;;;;;;0.60;0.10;;;13.90;1.00;;;;;;5051328;28;20447;-70
2022/10/10 09:40:00;;;;;;;4.60;2.50;;;14.00;1.00;;;;;;5038327;28;20897;-71
2022/10/10 09:42:34;;;;;;;10.70;10.10;;;14.00;1.00;;;;;;5050432;28;20458;-71
2022/10/10 09:45:03;;;;;;;1.10;1.10;;;14.00;1.00;;;;;;5049426;28;21029;-71
2022/10/10 09:47:31;;;;;;;0.67;0.27;;;14.10;1.00;;;;;;5058616;28;20956;-71
2022/10/10 09:50:00;;;;;;;0.60;0.10;;;14.10;1.00;;;;;;5056579;28;20516;-71
2022/10/10 09:52:30;;;;;;;0.60;0.10;;;14.20;1.00;;;;;;5055225;28;20485;-71
2022/10/10 09:55:01;;;;;;;0.60;0.20;;;14.30;1.00;;;;;;5053898;28;20500;-70
2022/10/10 09:57:35;;;;;;;0.60;0.10;;;14.40;1.00;;;;;;5055770;28;20516;-72
2022/10/10 10:00:33;;;;;;;0.80;0.60;;;14.50;1.00;;;;;;5046711;28;20894;-71
2022/10/10 10:03:20;;;;;;;0.60;0.30;;;14.60;1.00;;;;;;5054190;28;20448;-70
2022/10/10 10:05:58;;;;;;;0.60;0.10;;;14.60;1.00;;;;;;5063148;28;20446;-70
2022/10/10 10:08:29;;;;;;;0.60;0.10;;;14.60;1.00;;;;;;5055891;28;20563;-72
2022/10/10 10:10:57;;;;;;;0.70;0.20;;;14.70;1.00;;;;;;5058553;28;20470;-71
2022/10/10 10:13:29;;;;;;;0.70;0.43;;;14.70;1.00;;;;;;5054750;28;20441;-71
2022/10/10 10:16:04;;;;;;;0.60;0.10;;;14.60;1.00;;;;;;5053770;28;20442;-70
2022/10/10 10:18:39;;;;;;;0.70;0.40;;;14.60;1.00;;;;;;5064315;28;20466;-71
2022/10/10 10:21:26;;;;;;;1.20;0.20;;;14.70;1.00;;;;;;5073520;28;20472;-71
2022/10/10 10:23:57;;;;;;;0.90;0.70;;;14.80;1.00;;;;;;5055405;28;20446;-70
2022/10/10 10:26:29;;;;;;;8.83;3.07;;;14.80;1.00;;;;;;5055040;28;20863;-70
2022/10/10 10:28:58;;;;;;;0.60;0.20;;;14.80;1.00;;;;;;5058854;28;21010;-71
2022/10/10 10:31:53;;;;;;;0.60;0.10;;;14.90;1.00;;;;;;5060611;28;20438;-71
2022/10/10 10:34:43;;;;;;;0.80;0.53;;;15.00;1.00;;;;;;5050528;28;20472;-70
2022/10/10 10:37:19;;;;;;;0.60;0.10;;;15.30;1.00;;;;;;5055132;28;20443;-72
2022/10/10 10:40:14;;;;;;;0.60;0.10;;;15.30;1.00;;;;;;5051307;28;20632;-71
2022/10/10 10:42:56;;;;;;;0.60;0.10;;;15.50;1.00;;;;;;5049111;28;20662;-71
2022/10/10 10:45:28;;;;;;;0.60;0.20;;;15.70;1.00;;;;;;5050097;28;20470;-71
2022/10/10 10:48:06;;;;;;;1.03;0.93;;;15.80;1.00;;;;;;5035799;28;20505;-72
2022/10/10 10:50:44;;;;;;;0.70;0.20;;;15.80;1.00;;;;;;5037722;28;20461;-71
2022/10/10 10:53:22;;;;;;;0.60;0.20;;;15.90;1.00;;;;;;5054470;28;20501;-71
2022/10/10 10:55:57;;;;;;;0.60;0.20;;;16.00;1.00;;;;;;5064045;28;20438;-72
2022/10/10 10:58:42;;;;;;;1.00;0.97;;;16.20;1.00;;;;;;5055422;28;20484;-72
2022/10/10 11:01:36;;;;;;;2.77;1.90;;;16.20;1.00;;;;;;5054529;28;21055;-71
2022/10/10 11:04:46;;;;;;;1.27;1.10;;;16.20;1.00;;;;;;5054279;28;20978;-70
2022/10/10 11:07:42;;;;;;;1.57;1.47;;;16.20;1.00;;;;;;5054515;28;20442;-70
2022/10/10 11:10:18;;;;;;;0.60;0.10;;;16.40;1.00;;;;;;5055404;28;20452;-71
2022/10/10 11:13:00;;;;;;;0.60;0.10;;;16.50;1.00;;;;;;5074262;28;20526;-71
2022/10/10 11:15:33;;;;;;;3.93;1.87;;;16.50;1.00;;;;;;5055121;28;20454;-72
2022/10/10 11:18:27;;;;;;;0.60;0.10;;;16.60;1.00;;;;;;5055152;28;20559;-71
2022/10/10 11:21:01;;;;;;;0.60;0.10;;;16.60;1.00;;;;;;5055114;28;20906;-70
2022/10/10 11:23:33;;;;;;;1.53;1.13;;;16.70;1.00;;;;;;5054336;28;20564;-70
2022/10/10 11:26:07;;;;;;;0.60;0.10;;;16.70;1.00;;;;;;5059357;28;20515;-71
2022/10/10 11:28:39;;;;;;;1.50;1.40;;;16.90;1.00;;;;;;5048308;28;20478;-71
2022/10/10 11:31:13;;;;;;;0.80;0.30;;;16.90;1.00;;;;;;5048157;28;21147;-71
2022/10/10 11:33:45;;;;;;;0.70;0.40;;;17.00;1.00;;;;;;5053699;28;20438;-72
2022/10/10 11:36:16;;;;;;;2.30;1.43;;;17.10;1.00;;;;;;5053603;28;20492;-70
2022/10/10 11:38:48;;;;;;;3.03;1.77;;;17.20;1.00;;;;;;5052591;28;20482;-71
2022/10/10 11:41:21;;;;;;;0.70;0.30;;;17.20;1.00;;;;;;5048575;28;20489;-70
2022/10/10 11:43:54;;;;;;;0.67;0.30;;;17.20;1.00;;;;;;5052704;28;20439;-72
2022/10/10 11:46:29;;;;;;;2.23;0.90;;;16.40;1.00;;;;;;5069041;28;20848;-72
2022/10/10 11:49:07;;;;;;;1.60;1.50;;;17.30;1.00;;;;;;5064341;28;20545;-71
2022/10/10 11:52:03;;;;;;;0.60;0.20;;;17.30;1.00;;;;;;5053338;28;20504;-71
2022/10/10 11:54:57;;;;;;;0.60;0.20;;;17.40;1.00;;;;;;5064098;28;21013;-70
2022/10/10 11:57:37;;;;;;;3.70;3.40;;;17.40;1.00;;;;;;5065527;28;20454;-71
2022/10/10 12:00:07;;;;;;;1.20;0.33;;;17.40;1.00;;;;;;5047490;28;20442;-72
2022/10/10 12:02:39;;;;;;;0.60;0.10;;;17.50;1.00;;;;;;5054670;28;20481;-70
2022/10/10 12:05:18;;;;;;;1.00;0.53;;;17.60;1.00;;;;;;5060381;28;20445;-71
2022/10/10 12:08:02;;;;;;;0.60;0.10;;;17.70;1.00;;;;;;5077337;28;20442;-71
2022/10/10 12:10:35;;;;;;;0.97;0.40;;;17.70;1.00;;;;;;5067155;28;20964;-68
2022/10/10 12:13:19;;;;;;;5.30;4.93;;;17.80;1.00;;;;;;5075130;28;20418;-70
2022/10/10 12:15:51;;;;;;;1.47;0.87;;;17.90;1.00;;;;;;5075158;28;20519;-70
2022/10/10 12:18:29;;;;;;;0.60;0.20;;;17.90;1.00;;;;;;5066347;28;20497;-71
2022/10/10 12:21:06;;;;;;;1.13;1.03;;;17.90;1.00;;;;;;5063131;28;20450;-70
2022/10/10 12:23:34;;;;;;;0.60;0.10;;;17.90;1.00;;;;;;5071684;28;20477;-70
2022/10/10 12:26:02;;;;;;;0.80;0.40;;;17.90;1.00;;;;;;5058009;28;20812;-70
2022/10/10 12:28:37;;;;;;;1.70;1.60;;;17.90;1.00;;;;;;5053020;28;20473;-69
2022/10/10 12:31:31;;;;;;;0.70;0.33;;;18.00;1.00;;;;;;5050955;28;20454;-70
2022/10/10 12:34:09;;;;;;;0.60;0.10;;;18.10;1.00;;;;;;5054911;28;20462;-70
2022/10/10 12:36:56;;;;;;;1.13;0.97;;;18.20;1.00;;;;;;5053790;28;21014;-70
2022/10/10 12:39:38;;;;;;;1.70;1.60;;;18.30;1.00;;;;;;5053683;28;20535;-72
2022/10/10 12:42:32;;;;;;;0.60;0.10;;;18.40;1.00;;;;;;5058210;28;20481;-72
2022/10/10 12:45:01;;;;;;;0.60;0.30;;;18.60;1.00;;;;;;5058468;28;20465;-71
2022/10/10 12:47:40;;;;;;;0.60;0.10;;;18.60;1.00;;;;;;5072923;28;20441;-71
2022/10/10 12:50:31;;;;;;;0.60;0.10;;;18.70;1.00;;;;;;5057294;28;20471;-71
2022/10/10 12:53:01;;;;;;;0.70;0.50;;;18.80;1.00;;;;;;5052399;28;20437;-71
2022/10/10 12:55:30;;;;;;;0.97;0.70;;;18.90;1.00;;;;;;5049606;28;20516;-71
2022/10/10 12:58:01;;;;;;;0.60;0.20;;;18.90;1.00;;;;;;5044700;28;20438;-71
2022/10/10 13:00:40;;;;;;;0.70;0.53;;;18.90;1.00;;;;;;5053073;28;20782;-72
2022/10/10 13:03:15;;;;;;;0.90;0.67;;;19.00;1.00;;;;;;5051086;28;20524;-71
2022/10/10 13:05:45;;;;;;;0.60;0.20;;;18.90;1.00;;;;;;5056528;28;20450;-72
2022/10/10 13:08:16;;;;;;;0.60;0.10;;;18.90;1.00;;;;;;5063713;28;20684;-71
2022/10/10 13:11:01;;;;;;;0.60;0.10;;;19.00;1.00;;;;;;5061960;28;20940;-71
2022/10/10 13:13:30;;;;;;;0.60;0.10;;;19.10;1.00;;;;;;5055714;28;20477;-71
2022/10/10 13:16:06;;;;;;;0.60;0.20;;;19.10;1.00;;;;;;5053683;28;20496;-72
2022/10/10 13:18:36;;;;;;;0.60;0.10;;;19.10;1.00;;;;;;5058256;28;20472;-72
2022/10/10 13:21:09;;;;;;;2.00;1.07;;;19.10;1.00;;;;;;5066270;28;20503;-71
2022/10/10 13:23:40;;;;;;;0.70;0.40;;;19.10;1.00;;;;;;5072711;28;20509;-71